createdAt,value
2023-02-13T00:01:02.716Z,52496.92
2023-02-13T00:03:35.560Z,52511.39
2023-02-13T00:06:09.383Z,52513.40
2023-02-13T00:08:42.928Z,52511.39
2023-02-13T00:11:20.799Z,52530.27
2023-02-13T00:13:56.296Z,52491.29
2023-02-13T00:16:29.812Z,52518.63
2023-02-13T00:19:07.498Z,52492.90
2023-02-13T00:21:40.827Z,52521.43
2023-02-13T00:24:15.581Z,52524.25
2023-02-13T00:26:48.343Z,52537.51
2023-02-13T00:29:23.737Z,52509.78
2023-02-13T00:31:58.418Z,52526.26
2023-02-13T00:34:31.608Z,52519.02
2023-02-13T00:37:04.571Z,52517.82
2023-02-13T00:39:40.907Z,52517.41
2023-02-13T00:42:14.061Z,52523.04
2023-02-13T00:44:48.612Z,52523.04
2023-02-13T00:47:21.645Z,52525.46
2023-02-13T00:49:54.392Z,52527.87
2023-02-13T00:52:27.188Z,52516.61
2023-02-13T00:55:00.323Z,52523.04
2023-02-13T00:57:43.262Z,52517.42
2023-02-13T01:00:19.385Z,52521.03
2023-02-13T01:02:52.794Z,52521.44
2023-02-13T01:05:26.032Z,52521.44
2023-02-13T01:07:59.625Z,52525.46
2023-02-13T01:10:33.416Z,52519.43
2023-02-13T01:13:06.619Z,52539.12
2023-02-13T01:15:39.480Z,52517.82
2023-02-13T01:18:19.316Z,52532.29
2023-02-13T01:21:01.299Z,52540.73
2023-02-13T01:23:38.536Z,52550.77
2023-02-13T01:26:12.728Z,52540.73
2023-02-13T01:28:45.876Z,52514.60
2023-02-13T01:31:23.545Z,52537.91
2023-02-13T01:33:59.377Z,52530.68
2023-02-13T01:36:32.208Z,52527.06
2023-02-13T01:39:05.323Z,52537.91
2023-02-13T01:41:38.513Z,52530.68
2023-02-13T01:44:37.981Z,52523.85
2023-02-13T01:47:12.118Z,52527.86
2023-02-13T01:49:45.510Z,52526.26
2023-02-13T01:52:18.242Z,52545.15
2023-02-13T01:54:51.129Z,52541.93
2023-02-13T01:57:25.095Z,52539.52
2023-02-13T02:00:00.752Z,52553.19
2023-02-13T02:02:36.251Z,52537.51
2023-02-13T02:05:09.853Z,52545.15
2023-02-13T02:07:47.018Z,52522.24
2023-02-13T02:10:21.486Z,52527.86
2023-02-13T02:12:57.708Z,52537.51
2023-02-13T02:15:32.093Z,52539.12
2023-02-13T02:18:05.964Z,52543.14
2023-02-13T02:21:00.130Z,52538.72
2023-02-13T02:24:17.281Z,52532.69
2023-02-13T02:27:14.148Z,52533.09
2023-02-13T02:30:27.915Z,52554.39
2023-02-13T02:33:09.015Z,52542.74
2023-02-13T02:35:49.053Z,52543.54
2023-02-13T02:38:31.914Z,52555.59
2023-02-13T02:41:08.883Z,52541.53
2023-02-13T02:43:52.923Z,52551.57
2023-02-13T02:46:29.161Z,52549.57
2023-02-13T02:49:24.784Z,52547.16
2023-02-13T02:52:00.487Z,52541.93
2023-02-13T02:54:51.927Z,52550.37
2023-02-13T02:57:26.176Z,52547.96
2023-02-13T03:00:22.611Z,52554.79
2023-02-13T03:03:12.750Z,52532.29
2023-02-13T03:06:03.752Z,52546.76
2023-02-13T03:08:50.507Z,52542.33
2023-02-13T03:11:40.648Z,52547.55
2023-02-13T03:14:15.089Z,52545.55
2023-02-13T03:17:05.765Z,52541.93
2023-02-13T03:20:06.458Z,52552.78
2023-02-13T03:22:46.831Z,52554.39
2023-02-13T03:25:34.684Z,52554.39
2023-02-13T03:28:29.454Z,52544.74
2023-02-13T03:31:06.647Z,52544.74
2023-02-13T03:33:49.484Z,52567.25
2023-02-13T03:36:44.047Z,52555.59
2023-02-13T03:39:20.654Z,52535.10
2023-02-13T03:41:54.464Z,52544.34
2023-02-13T03:44:30.347Z,52559.61
2023-02-13T03:47:04.664Z,52536.30
2023-02-13T03:49:56.576Z,52569.26
2023-02-13T03:52:32.158Z,52551.57
2023-02-13T03:55:28.190Z,52537.11
2023-02-13T03:58:22.652Z,52539.52
2023-02-13T04:00:57.862Z,52557.61
2023-02-13T04:03:32.968Z,52553.99
2023-02-13T04:06:08.127Z,52552.78
2023-02-13T04:08:41.273Z,52563.64
2023-02-13T04:11:17.196Z,52541.13
2023-02-13T04:13:51.323Z,52535.91
2023-02-13T04:16:26.316Z,52551.57
2023-02-13T04:18:59.291Z,52564.04
2023-02-13T04:21:35.805Z,52563.63
2023-02-13T04:24:10.402Z,52545.95
2023-02-13T04:26:44.755Z,52561.23
2023-02-13T04:29:17.454Z,52543.95
2023-02-13T04:31:50.754Z,52548.76
2023-02-13T04:34:23.929Z,52551.18
2023-02-13T04:36:57.176Z,52548.76
2023-02-13T04:39:30.395Z,52563.23
2023-02-13T04:42:03.153Z,52573.68
2023-02-13T04:44:36.326Z,52557.20
2023-02-13T04:47:09.129Z,52558.41
2023-02-13T04:49:42.413Z,52566.04
2023-02-13T04:52:15.633Z,52547.96
2023-02-13T04:54:48.910Z,52549.97
2023-02-13T04:57:22.872Z,52550.77
2023-02-13T04:59:56.312Z,52557.21
2023-02-13T05:02:29.166Z,52544.74
2023-02-13T05:05:02.284Z,52550.38
2023-02-13T05:07:36.134Z,52551.18
2023-02-13T05:10:11.713Z,52546.76
2023-02-13T05:12:44.532Z,52537.11
2023-02-13T05:15:18.658Z,52564.84
2023-02-13T05:17:51.387Z,52551.18
2023-02-13T05:20:24.377Z,52557.61
2023-02-13T05:23:15.154Z,52543.95
2023-02-13T05:25:48.266Z,52540.32
2023-02-13T05:28:39.203Z,52551.57
2023-02-13T05:31:13.521Z,52539.12
2023-02-13T05:33:46.824Z,52531.48
2023-02-13T05:36:20.345Z,52548.36
2023-02-13T05:38:53.719Z,52553.19
2023-02-13T05:41:27.848Z,52526.26
2023-02-13T05:44:00.481Z,52530.68
2023-02-13T05:46:36.603Z,52533.09
2023-02-13T05:49:17.260Z,52548.77
2023-02-13T05:51:52.815Z,52541.53
2023-02-13T05:54:26.088Z,52541.93
2023-02-13T05:56:58.856Z,52530.27
2023-02-13T05:59:31.700Z,52531.08
2023-02-13T06:02:05.392Z,52542.33
2023-02-13T06:04:38.203Z,52533.89
2023-02-13T06:07:11.201Z,52538.72
2023-02-13T06:09:44.168Z,52523.04
2023-02-13T06:12:18.980Z,52541.52
2023-02-13T06:14:51.881Z,52535.10
2023-02-13T06:17:24.725Z,52535.10
2023-02-13T06:19:57.405Z,52537.91
2023-02-13T06:22:31.359Z,52547.16
2023-02-13T06:25:04.655Z,52539.12
2023-02-13T06:27:38.285Z,52537.51
2023-02-13T06:30:13.165Z,52547.16
2023-02-13T06:32:46.463Z,52527.86
2023-02-13T06:35:20.778Z,52546.35
2023-02-13T06:37:53.725Z,52521.03
2023-02-13T06:40:26.868Z,52532.29
2023-02-13T06:43:00.013Z,52516.21
2023-02-13T06:45:33.214Z,52527.06
2023-02-13T06:48:06.530Z,52528.26
2023-02-13T06:50:39.981Z,52535.90
2023-02-13T06:53:12.810Z,52521.03
2023-02-13T06:55:45.706Z,52519.02
2023-02-13T06:58:20.009Z,52516.21
2023-02-13T07:00:53.222Z,52523.04
2023-02-13T07:03:26.274Z,52519.43
2023-02-13T07:05:59.728Z,52521.02
2023-02-13T07:08:33.260Z,52506.16
2023-02-13T07:11:06.530Z,52520.23
2023-02-13T07:13:39.347Z,52515.81
2023-02-13T07:16:12.679Z,52524.66
2023-02-13T07:18:49.055Z,52511.79
2023-02-13T07:21:21.873Z,52507.37
2023-02-13T07:23:54.904Z,52513.40
2023-02-13T07:26:28.307Z,52497.32
2023-02-13T07:29:11.411Z,52504.15
2023-02-13T07:31:45.324Z,52495.31
2023-02-13T07:34:18.571Z,52492.90
2023-02-13T07:36:51.717Z,52497.73
2023-02-13T07:39:24.900Z,52508.57
2023-02-13T07:41:57.880Z,52508.18
2023-02-13T07:44:33.445Z,52513.40
2023-02-13T07:47:06.710Z,52488.08
2023-02-13T07:49:39.728Z,52498.13
2023-02-13T07:52:12.596Z,52483.25
2023-02-13T07:54:48.465Z,52498.53
2023-02-13T07:57:21.623Z,52495.31
2023-02-13T07:59:55.446Z,52485.67
2023-02-13T08:02:29.038Z,52491.70
2023-02-13T08:05:04.391Z,52474.01
2023-02-13T08:07:38.135Z,52505.76
2023-02-13T08:10:31.844Z,52485.66
2023-02-13T08:13:05.108Z,52492.90
2023-02-13T08:15:39.080Z,52480.84
2023-02-13T08:18:12.632Z,52487.27
2023-02-13T08:20:45.659Z,52482.85
2023-02-13T08:23:18.858Z,52491.70
2023-02-13T08:25:54.875Z,52473.61
2023-02-13T08:28:28.738Z,52476.43
2023-02-13T08:31:02.444Z,52469.59
2023-02-13T08:33:36.213Z,52464.77
2023-02-13T08:36:10.603Z,52477.63
2023-02-13T08:38:45.219Z,52468.39
2023-02-13T08:41:19.441Z,52477.23
2023-02-13T08:43:52.479Z,52465.98
2023-02-13T08:46:32.536Z,52486.07
2023-02-13T08:49:06.338Z,52459.95
2023-02-13T08:51:39.257Z,52457.54
2023-02-13T08:54:11.898Z,52463.96
2023-02-13T08:56:44.705Z,52455.93
2023-02-13T08:59:17.896Z,52447.89
2023-02-13T09:01:50.591Z,52463.97
2023-02-13T09:04:23.992Z,52454.32
2023-02-13T09:06:59.726Z,52450.30
2023-02-13T09:09:32.747Z,52459.54
2023-02-13T09:12:07.456Z,52443.88
2023-02-13T09:14:40.940Z,52469.20
2023-02-13T09:17:14.890Z,52453.51
2023-02-13T09:19:50.275Z,52470.79
2023-02-13T09:22:23.186Z,52447.49
2023-02-13T09:24:55.844Z,52451.11
2023-02-13T09:27:29.078Z,52447.09
2023-02-13T09:30:02.222Z,52451.51
2023-02-13T09:32:35.813Z,52437.45
2023-02-13T09:35:11.480Z,52436.64
2023-02-13T09:37:46.256Z,52428.20
2023-02-13T09:40:22.069Z,52434.63
2023-02-13T09:42:55.604Z,52427.39
2023-02-13T09:45:28.727Z,52438.24
2023-02-13T09:48:02.096Z,52403.68
2023-02-13T09:50:35.648Z,52424.18
2023-02-13T09:53:09.156Z,52408.51
2023-02-13T09:55:48.686Z,52408.51
2023-02-13T09:58:23.706Z,52396.85
2023-02-13T10:00:57.801Z,52390.42
2023-02-13T10:03:33.678Z,52401.27
2023-02-13T10:06:12.265Z,52403.68
2023-02-13T10:09:01.706Z,52392.43
2023-02-13T10:11:46.105Z,52410.11
2023-02-13T10:14:20.554Z,52425.79
2023-02-13T10:16:57.405Z,52404.09
2023-02-13T10:19:37.303Z,52406.50
2023-02-13T10:22:12.018Z,52398.46
2023-02-13T10:24:48.752Z,52398.46
2023-02-13T10:27:27.103Z,52394.44
2023-02-13T10:30:12.890Z,52413.33
2023-02-13T10:32:49.580Z,52419.36
2023-02-13T10:35:28.482Z,52413.33
2023-02-13T10:38:01.646Z,52402.48
2023-02-13T10:40:37.693Z,52393.64
2023-02-13T10:43:11.529Z,52391.23
2023-02-13T10:45:58.748Z,52399.26
2023-02-13T10:48:39.271Z,52396.05
2023-02-13T10:51:14.603Z,52378.37
2023-02-13T10:53:54.193Z,52392.84
2023-02-13T10:56:32.081Z,52388.41
2023-02-13T10:59:16.363Z,52381.98
2023-02-13T11:01:51.245Z,52395.24
2023-02-13T11:04:25.597Z,52376.76
2023-02-13T11:07:00.956Z,52381.98
2023-02-13T11:09:35.570Z,52378.37
2023-02-13T11:12:28.814Z,52389.21
2023-02-13T11:15:03.934Z,52384.79
2023-02-13T11:17:38.589Z,52388.01
2023-02-13T11:20:26.940Z,52394.84
2023-02-13T11:23:00.552Z,52402.48
2023-02-13T11:25:34.205Z,52394.44
2023-02-13T11:28:13.181Z,52394.04
2023-02-13T11:30:48.355Z,52393.64
2023-02-13T11:33:28.751Z,52398.46
2023-02-13T11:36:09.435Z,52392.83
2023-02-13T11:38:42.265Z,52372.34
2023-02-13T11:41:24.175Z,52381.18
2023-02-13T11:44:01.662Z,52391.63
2023-02-13T11:46:47.924Z,52397.65
2023-02-13T11:49:22.850Z,52381.98
2023-02-13T11:51:56.575Z,52381.18
2023-02-13T11:54:32.335Z,52372.74
2023-02-13T11:57:16.563Z,52399.26
2023-02-13T11:59:50.268Z,52392.03
2023-02-13T12:02:24.622Z,52404.89
2023-02-13T12:05:14.941Z,52407.30
2023-02-13T12:07:48.096Z,52403.28
2023-02-13T12:10:24.197Z,52396.85
2023-02-13T12:12:59.091Z,52388.81
2023-02-13T12:15:33.677Z,52394.84
2023-02-13T12:18:18.506Z,52400.47
2023-02-13T12:20:55.618Z,52393.23
2023-02-13T12:23:34.702Z,52393.64
2023-02-13T12:26:13.136Z,52387.21
2023-02-13T12:28:54.257Z,52405.29
2023-02-13T12:31:51.518Z,52405.29
2023-02-13T12:35:09.603Z,52402.88
2023-02-13T12:37:58.982Z,52397.66
2023-02-13T12:40:44.124Z,52408.11
2023-02-13T12:43:37.338Z,52409.31
2023-02-13T12:46:12.697Z,52406.50
2023-02-13T12:48:48.478Z,52393.23
2023-02-13T12:51:27.695Z,52386.00
2023-02-13T12:54:17.873Z,52388.81
2023-02-13T12:57:04.017Z,52372.34
2023-02-13T12:59:43.079Z,52378.77
2023-02-13T13:03:00.163Z,52383.59
2023-02-13T13:05:43.292Z,52394.84
2023-02-13T13:08:31.476Z,52412.12
2023-02-13T13:11:12.733Z,52400.07
2023-02-13T13:13:52.166Z,52387.21
2023-02-13T13:16:31.240Z,52390.02
2023-02-13T13:19:09.358Z,52388.41
2023-02-13T13:21:45.319Z,52383.19
2023-02-13T13:24:27.619Z,52394.84
2023-02-13T13:27:00.593Z,52402.88
2023-02-13T13:29:38.028Z,52398.86
2023-02-13T13:32:13.317Z,52385.60
2023-02-13T13:34:47.120Z,52386.80
2023-02-13T13:37:24.407Z,52395.24
2023-02-13T13:39:59.232Z,52405.70
2023-02-13T13:42:37.000Z,52379.97
2023-02-13T13:45:31.318Z,52392.83
2023-02-13T13:48:33.352Z,52386.40
2023-02-13T13:51:06.442Z,52386.80
2023-02-13T13:53:42.503Z,52400.07
2023-02-13T13:56:16.253Z,52398.86
2023-02-13T13:58:51.432Z,52379.97
2023-02-13T14:01:29.511Z,52387.21
2023-02-13T14:04:03.903Z,52384.39
2023-02-13T14:07:21.873Z,52405.70
2023-02-13T14:09:55.307Z,52394.44
2023-02-13T14:12:50.564Z,52379.57
2023-02-13T14:15:55.490Z,52395.24
2023-02-13T14:18:28.440Z,52406.90
2023-02-13T14:21:02.596Z,52406.09
2023-02-13T14:23:54.472Z,52388.41
2023-02-13T14:26:38.416Z,52408.50
2023-02-13T14:29:34.598Z,52384.39
2023-02-13T14:32:19.220Z,52400.47
2023-02-13T14:34:57.564Z,52394.04
2023-02-13T14:37:39.864Z,52404.49
2023-02-13T14:40:45.608Z,52402.48
2023-02-13T14:43:24.807Z,52400.87
2023-02-13T14:45:59.333Z,52390.82
2023-02-13T14:48:37.785Z,52392.83
2023-02-13T14:51:17.834Z,52421.77
2023-02-13T14:53:53.367Z,52400.07
2023-02-13T14:56:26.853Z,52405.29
2023-02-13T14:59:02.945Z,52424.98
2023-02-13T15:01:37.467Z,52379.97
2023-02-13T15:04:14.853Z,52403.28
2023-02-13T15:06:48.610Z,52398.86
2023-02-13T15:09:25.902Z,52391.23
2023-02-13T15:11:59.307Z,52403.68
2023-02-13T15:14:36.394Z,52413.73
2023-02-13T15:17:15.087Z,52398.46
2023-02-13T15:19:49.243Z,52412.93
2023-02-13T15:22:23.740Z,52406.90
2023-02-13T15:24:56.705Z,52401.27
2023-02-13T15:27:31.054Z,52390.82
2023-02-13T15:30:05.611Z,52398.46
2023-02-13T15:32:39.384Z,52390.02
2023-02-13T15:35:25.529Z,52395.24
2023-02-13T15:37:58.225Z,52379.97
2023-02-13T15:40:32.346Z,52397.25
2023-02-13T15:43:05.279Z,52390.42
2023-02-13T15:45:39.214Z,52403.28
2023-02-13T15:48:16.559Z,52389.62
2023-02-13T15:50:49.330Z,52400.07
2023-02-13T15:53:21.983Z,52376.75
2023-02-13T15:56:02.417Z,52400.46
2023-02-13T15:58:36.086Z,52394.84
2023-02-13T16:01:10.247Z,52388.41
2023-02-13T16:03:43.593Z,52392.83
2023-02-13T16:06:18.076Z,52404.49
2023-02-13T16:08:56.188Z,52395.64
2023-02-13T16:11:34.145Z,52400.46
2023-02-13T16:14:25.011Z,52401.68
2023-02-13T16:17:02.330Z,52401.68
2023-02-13T16:19:45.859Z,52383.59
2023-02-13T16:22:33.932Z,52388.81
2023-02-13T16:25:22.589Z,52386.80
2023-02-13T16:27:56.388Z,52399.26
2023-02-13T16:30:34.950Z,52386.40
2023-02-13T16:33:28.926Z,52394.84
2023-02-13T16:36:02.683Z,52400.07
2023-02-13T16:38:37.570Z,52403.28
2023-02-13T16:41:36.121Z,52388.01
2023-02-13T16:44:18.495Z,52396.85
2023-02-13T16:46:53.289Z,52403.28
2023-02-13T16:49:27.954Z,52403.68
2023-02-13T16:52:18.637Z,52408.10
2023-02-13T16:54:54.165Z,52399.66
2023-02-13T16:57:30.413Z,52384.79
2023-02-13T17:00:10.127Z,52411.72
2023-02-13T17:02:44.505Z,52403.68
2023-02-13T17:05:24.684Z,52398.86
2023-02-13T17:08:01.662Z,52380.77
2023-02-13T17:10:37.124Z,52382.79
2023-02-13T17:13:20.045Z,52383.99
2023-02-13T17:15:55.301Z,52387.61
2023-02-13T17:18:30.093Z,52400.07
2023-02-13T17:21:03.274Z,52406.10
2023-02-13T17:23:36.274Z,52394.84
2023-02-13T17:26:09.489Z,52403.68
2023-02-13T17:28:43.053Z,52392.84
2023-02-13T17:31:16.125Z,52385.60
2023-02-13T17:33:49.333Z,52398.06
2023-02-13T17:36:22.139Z,52379.98
2023-02-13T17:38:55.563Z,52376.36
2023-02-13T17:41:29.991Z,52392.83
2023-02-13T17:44:02.842Z,52393.23
2023-02-13T17:46:36.647Z,52387.61
2023-02-13T17:49:09.439Z,52393.63
2023-02-13T17:51:45.872Z,52388.01
2023-02-13T17:54:18.884Z,52394.04
2023-02-13T17:56:52.825Z,52386.00
2023-02-13T17:59:26.068Z,52399.26
2023-02-13T18:01:59.145Z,52398.86
2023-02-13T18:04:32.368Z,52391.63
2023-02-13T18:07:05.888Z,52400.47
2023-02-13T18:09:40.140Z,52388.81
2023-02-13T18:12:14.826Z,52397.66
2023-02-13T18:14:48.621Z,52398.46
2023-02-13T18:17:22.811Z,52401.67
2023-02-13T18:19:58.141Z,52382.79
2023-02-13T18:22:31.877Z,52392.84
2023-02-13T18:25:05.271Z,52386.40
2023-02-13T18:27:38.266Z,52403.68
2023-02-13T18:30:13.171Z,52394.84
2023-02-13T18:32:46.051Z,52402.08
2023-02-13T18:35:19.209Z,52416.54
2023-02-13T18:37:51.854Z,52381.18
2023-02-13T18:40:25.009Z,52396.85
2023-02-13T18:42:58.302Z,52390.42
2023-02-13T18:45:31.163Z,52383.59
2023-02-13T18:48:04.555Z,52397.25
2023-02-13T18:50:37.856Z,52389.21
2023-02-13T18:53:10.627Z,52378.77
2023-02-13T18:55:43.640Z,52390.82
2023-02-13T18:58:16.485Z,52385.60
2023-02-13T19:00:49.620Z,52392.03
2023-02-13T19:03:22.638Z,52406.90
2023-02-13T19:05:55.679Z,52392.43
2023-02-13T19:08:28.438Z,52396.05
2023-02-13T19:11:03.361Z,52384.39
2023-02-13T19:13:36.197Z,52393.23
2023-02-13T19:16:12.604Z,52395.65
2023-02-13T19:18:46.524Z,52384.40
2023-02-13T19:21:19.609Z,52387.61
2023-02-13T19:23:53.088Z,52385.60
2023-02-13T19:26:27.222Z,52381.58
2023-02-13T19:29:00.878Z,52400.87
2023-02-13T19:31:34.508Z,52384.39
2023-02-13T19:34:07.486Z,52391.63
2023-02-13T19:36:40.570Z,52393.63
2023-02-13T19:39:13.674Z,52389.21
2023-02-13T19:41:46.456Z,52410.92
2023-02-13T19:44:19.399Z,52404.09
2023-02-13T19:46:52.407Z,52390.82
2023-02-13T19:49:25.648Z,52396.85
2023-02-13T19:51:58.845Z,52398.05
2023-02-13T19:54:32.317Z,52380.37
2023-02-13T19:57:07.929Z,52394.44
2023-02-13T20:00:04.892Z,52397.25
2023-02-13T20:02:45.675Z,52387.61
2023-02-13T20:05:18.456Z,52407.30
2023-02-13T20:07:52.761Z,52389.62
2023-02-13T20:10:25.690Z,52390.02
2023-02-13T20:12:58.684Z,52397.66
2023-02-13T20:15:32.478Z,52404.49
2023-02-13T20:18:06.043Z,52410.52
2023-02-13T20:20:42.436Z,52404.09
2023-02-13T20:23:17.164Z,52408.91
2023-02-13T20:25:49.959Z,52397.25
2023-02-13T20:28:23.162Z,52395.25
2023-02-13T20:30:57.499Z,52411.72
2023-02-13T20:33:31.639Z,52383.59
2023-02-13T20:36:10.523Z,52390.02
2023-02-13T20:38:43.830Z,52405.69
2023-02-13T20:41:17.712Z,52397.26
2023-02-13T20:43:50.334Z,52404.09
2023-02-13T20:46:23.134Z,52410.92
2023-02-13T20:48:56.307Z,52393.63
2023-02-13T20:51:29.760Z,52396.85
2023-02-13T20:54:02.678Z,52428.60
2023-02-13T20:56:36.076Z,52397.65
2023-02-13T20:59:08.919Z,52394.04
2023-02-13T21:01:41.844Z,52390.82
2023-02-13T21:04:19.366Z,52404.09
2023-02-13T21:06:52.826Z,52402.88
2023-02-13T21:09:26.135Z,52394.84
2023-02-13T21:12:04.641Z,52411.32
2023-02-13T21:14:40.325Z,52427.39
2023-02-13T21:17:13.129Z,52400.46
2023-02-13T21:19:46.104Z,52416.95
2023-02-13T21:22:19.028Z,52395.24
2023-02-13T21:24:52.682Z,52390.02
2023-02-13T21:27:26.752Z,52398.86
2023-02-13T21:30:00.542Z,52392.84
2023-02-13T21:32:34.310Z,52415.34
2023-02-13T21:35:07.758Z,52424.58
2023-02-13T21:37:40.976Z,52413.73
2023-02-13T21:40:15.232Z,52420.16
2023-02-13T21:42:48.724Z,52409.71
2023-02-13T21:45:21.559Z,52416.54
2023-02-13T21:47:58.045Z,52418.95
2023-02-13T21:50:30.851Z,52416.54
2023-02-13T21:53:03.472Z,52420.56
2023-02-13T21:55:36.098Z,52401.68
2023-02-13T21:58:09.445Z,52411.32
2023-02-13T22:00:42.512Z,52412.93
2023-02-13T22:03:15.792Z,52423.78
2023-02-13T22:05:50.438Z,52416.95
2023-02-13T22:08:26.021Z,52423.77
2023-02-13T22:11:00.145Z,52414.13
2023-02-13T22:13:40.471Z,52399.26
2023-02-13T22:16:14.467Z,52418.15
2023-02-13T22:18:49.123Z,52422.97
2023-02-13T22:21:23.517Z,52432.22
2023-02-13T22:23:56.225Z,52402.88
2023-02-13T22:26:29.757Z,52432.22
2023-02-13T22:29:04.054Z,52439.45
2023-02-13T22:31:37.200Z,52420.96
2023-02-13T22:34:11.521Z,52418.15
2023-02-13T22:36:45.072Z,52412.12
2023-02-13T22:39:17.922Z,52428.60
2023-02-13T22:41:50.900Z,52423.77
2023-02-13T22:44:23.826Z,52415.34
2023-02-13T22:46:56.921Z,52414.13
2023-02-13T22:49:29.867Z,52416.54
2023-02-13T22:52:04.088Z,52416.95
2023-02-13T22:54:37.274Z,52426.19
2023-02-13T22:57:09.990Z,52424.58
2023-02-13T22:59:44.826Z,52425.39
2023-02-13T23:02:18.250Z,52412.52
2023-02-13T23:04:51.687Z,52416.54
2023-02-13T23:07:24.788Z,52425.79
2023-02-13T23:09:58.571Z,52403.28
2023-02-13T23:12:39.321Z,52414.54
2023-02-13T23:15:13.902Z,52406.49
2023-02-13T23:18:04.928Z,52411.72
2023-02-13T23:20:39.266Z,52422.57
2023-02-13T23:23:12.178Z,52421.77
2023-02-13T23:25:45.494Z,52396.85
2023-02-13T23:28:19.104Z,52420.16
2023-02-13T23:30:53.308Z,52420.96
2023-02-13T23:33:26.298Z,52431.01
2023-02-13T23:35:59.810Z,52414.54
2023-02-13T23:38:32.630Z,52415.34
2023-02-13T23:41:11.230Z,52418.96
2023-02-13T23:43:44.206Z,52403.68
2023-02-13T23:46:16.982Z,52420.16
2023-02-13T23:48:50.967Z,52407.30
2023-02-13T23:51:25.905Z,52410.11
2023-02-13T23:54:01.056Z,52426.19
2023-02-13T23:56:34.252Z,52395.64
2023-02-13T23:59:07.058Z,52425.79
